Terminal Aerodrome Forecast
Issued by NWS Chicago, IL

Home | Current Version | Previous Version | Text Only | Print | Product List | Glossary On
Versions: 1 2 3 4 5 6 7 8 9 10 11 12 13 14 15 16 17 18 19 20 21 22 23 24 25 26 27
000
FTUS43 KLOT 102340
TAFRFD
TAF
KRFD 102340Z 1100/1124 31006KT P6SM BKN025
     FM110300 VRB02KT P6SM SCT030 BKN100
      TEMPO 1110/1112 4SM -SHSN OVC040
     FM111200 18007KT P6SM BKN050 BKN120
     FM112100 VRB04KT 2SM -SN OVC025=

USA.gov is the U.S. government's official web portal to all federal, state and local government web resources and services.